createdAt,value
2024-01-01T00:01:50.797Z,96030.06
2024-01-01T00:04:17.358Z,96021.66
2024-01-01T00:06:43.806Z,96014.00
2024-01-01T00:09:10.291Z,96012.28
2024-01-01T00:11:37.442Z,96008.09
2024-01-01T00:14:04.489Z,96018.09
2024-01-01T00:16:31.199Z,96019.00
2024-01-01T00:18:57.666Z,96025.69
2024-01-01T00:21:24.114Z,96028.19
2024-01-01T00:23:50.590Z,96029.00
2024-01-01T00:26:17.436Z,96026.44
2024-01-01T00:28:44.018Z,96031.47
2024-01-01T00:31:10.657Z,96029.66
2024-01-01T00:33:37.164Z,96020.44
2024-01-01T00:36:03.748Z,96015.28
2024-01-01T00:38:30.194Z,96024.56
2024-01-01T00:40:56.793Z,96028.03
2024-01-01T00:43:23.185Z,96026.47
2024-01-01T00:45:50.409Z,96019.78
2024-01-01T00:48:18.018Z,96014.63
2024-01-01T00:50:45.839Z,96024.69
2024-01-01T00:53:12.799Z,96023.75
2024-01-01T00:55:39.389Z,96023.75
2024-01-01T00:58:08.060Z,96038.03
2024-01-01T01:00:35.474Z,96033.66
2024-01-01T01:03:02.238Z,96031.06
2024-01-01T01:05:28.911Z,96031.06
2024-01-01T01:07:55.697Z,96041.97
2024-01-01T01:10:22.288Z,96034.47
2024-01-01T01:12:48.729Z,96053.09
2024-01-01T01:15:15.216Z,96037.97
2024-01-01T01:17:41.821Z,96036.25
2024-01-01T01:20:08.983Z,96043.72
2024-01-01T01:22:35.592Z,96056.38
2024-01-01T01:25:02.186Z,96060.63
2024-01-01T01:27:28.632Z,96057.22
2024-01-01T01:29:55.251Z,96065.69
2024-01-01T01:32:21.814Z,96068.22
2024-01-01T01:34:48.484Z,96057.19
2024-01-01T01:37:14.960Z,96059.63
2024-01-01T01:39:41.509Z,96061.28
2024-01-01T01:42:10.862Z,96052.78
2024-01-01T01:44:37.319Z,96051.09
2024-01-01T01:47:04.441Z,96055.22
2024-01-01T01:49:32.440Z,96057.63
2024-01-01T01:52:02.286Z,96051.69
2024-01-01T01:54:31.144Z,96055.94
2024-01-01T01:56:57.589Z,96048.38
2024-01-01T01:59:24.083Z,96041.56
2024-01-01T02:01:51.317Z,96044.81
2024-01-01T02:04:18.100Z,96039.72
2024-01-01T02:06:46.344Z,96027.06
2024-01-01T02:09:12.926Z,96026.13
2024-01-01T02:11:39.445Z,96028.50
2024-01-01T02:14:13.998Z,96014.97
2024-01-01T02:16:40.912Z,96027.66
2024-01-01T02:19:13.647Z,96012.44
2024-01-01T02:21:40.159Z,96020.97
2024-01-01T02:24:07.091Z,96024.34
2024-01-01T02:26:33.609Z,96020.97
2024-01-01T02:29:00.056Z,96015.03
2024-01-01T02:31:26.560Z,96019.25
2024-01-01T02:33:53.163Z,96014.09
2024-01-01T02:36:19.776Z,96012.44
2024-01-01T02:38:46.231Z,96019.16
2024-01-01T02:41:12.706Z,96024.22
2024-01-01T02:43:39.192Z,96022.44
2024-01-01T02:46:05.776Z,96017.34
2024-01-01T02:48:32.449Z,95998.72
2024-01-01T02:50:58.963Z,96006.31
2024-01-01T02:53:25.445Z,96009.72
2024-01-01T02:55:51.925Z,96007.19
2024-01-01T02:58:18.414Z,96007.09
2024-01-01T03:00:48.834Z,96015.53
2024-01-01T03:03:16.137Z,96003.63
2024-01-01T03:05:43.160Z,96008.66
2024-01-01T03:08:10.908Z,96012.88
2024-01-01T03:10:37.544Z,95995.31
2024-01-01T03:13:04.236Z,96002.13
2024-01-01T03:15:30.858Z,95992.91
2024-01-01T03:17:57.742Z,95998.78
2024-01-01T03:20:26.778Z,95997.09
2024-01-01T03:22:53.302Z,95999.59
2024-01-01T03:25:19.846Z,95998.69
2024-01-01T03:27:46.682Z,95995.25
2024-01-01T03:30:13.352Z,95994.44
2024-01-01T03:32:41.444Z,96001.94
2024-01-01T03:35:08.082Z,96005.28
2024-01-01T03:37:34.747Z,96009.41
2024-01-01T03:40:01.287Z,96009.44
2024-01-01T03:42:27.752Z,96006.00
2024-01-01T03:44:54.183Z,96004.19
2024-01-01T03:47:21.572Z,96002.44
2024-01-01T03:49:49.068Z,96010.00
2024-01-01T03:52:15.633Z,95996.59
2024-01-01T03:54:42.287Z,96002.53
2024-01-01T03:57:08.707Z,96000.94
2024-01-01T03:59:35.150Z,95999.28
2024-01-01T04:02:01.648Z,96002.66
2024-01-01T04:04:29.698Z,96006.00
2024-01-01T04:06:56.522Z,96004.34
2024-01-01T04:09:23.017Z,96002.75
2024-01-01T04:11:49.408Z,96003.53
2024-01-01T04:14:15.934Z,96009.53
2024-01-01T04:16:42.523Z,96010.28
2024-01-01T04:19:09.161Z,96011.97
2024-01-01T04:21:40.634Z,96010.34
2024-01-01T04:24:10.497Z,96019.56
2024-01-01T04:26:40.050Z,96018.66
2024-01-01T04:29:06.700Z,96019.50
2024-01-01T04:31:33.119Z,96027.09
2024-01-01T04:33:59.791Z,96018.56
2024-01-01T04:36:26.496Z,96031.19
2024-01-01T04:38:53.096Z,96018.53
2024-01-01T04:41:19.662Z,96022.75
2024-01-01T04:43:46.252Z,96026.19
2024-01-01T04:46:12.870Z,96029.56
2024-01-01T04:48:39.452Z,96036.34
2024-01-01T04:51:06.474Z,96038.22
2024-01-01T04:53:33.088Z,96035.06
2024-01-01T04:55:59.809Z,96042.75
2024-01-01T04:58:26.391Z,96046.91
2024-01-01T05:00:52.869Z,96041.06
2024-01-01T05:03:19.348Z,96044.44
2024-01-01T05:05:45.831Z,96041.06
2024-01-01T05:08:12.607Z,96039.50
2024-01-01T05:10:39.480Z,96031.06
2024-01-01T05:13:06.130Z,96035.28
2024-01-01T05:15:32.590Z,96033.78
2024-01-01T05:17:59.097Z,96026.34
2024-01-01T05:20:26.426Z,96031.41
2024-01-01T05:22:52.968Z,96035.72
2024-01-01T05:25:19.482Z,96034.91
2024-01-01T05:27:45.990Z,96039.28
2024-01-01T05:30:12.793Z,96035.91
2024-01-01T05:32:39.420Z,96033.47
2024-01-01T05:35:06.707Z,96031.78
2024-01-01T05:37:33.147Z,96037.63
2024-01-01T05:39:59.763Z,96039.47
2024-01-01T05:42:26.771Z,96034.44
2024-01-01T05:44:53.157Z,96041.19
2024-01-01T05:47:19.670Z,96042.03
2024-01-01T05:49:46.199Z,96039.59
2024-01-01T05:52:12.847Z,96046.25
2024-01-01T05:54:39.370Z,96043.03
2024-01-01T05:57:05.843Z,96049.75
2024-01-01T05:59:32.285Z,96050.63
2024-01-01T06:01:58.846Z,96050.72
2024-01-01T06:04:25.273Z,96055.91
2024-01-01T06:06:52.462Z,96052.50
2024-01-01T06:09:19.868Z,96057.53
2024-01-01T06:11:46.295Z,96050.00
2024-01-01T06:14:12.813Z,96048.31
2024-01-01T06:16:39.301Z,96058.44
2024-01-01T06:19:08.193Z,96058.44
2024-01-01T06:21:34.717Z,96066.88
2024-01-01T06:24:01.161Z,96053.44
2024-01-01T06:26:27.686Z,96058.56
2024-01-01T06:28:54.138Z,96071.25
2024-01-01T06:31:20.685Z,96063.56
2024-01-01T06:33:47.211Z,96076.28
2024-01-01T06:36:13.718Z,96069.63
2024-01-01T06:38:40.123Z,96072.13
2024-01-01T06:41:06.668Z,96072.16
2024-01-01T06:43:33.749Z,96077.22
2024-01-01T06:46:00.379Z,96080.53
2024-01-01T06:48:26.983Z,96094.88
2024-01-01T06:50:53.518Z,96100.63
2024-01-01T06:53:19.885Z,96111.63
2024-01-01T06:55:46.380Z,96107.41
2024-01-01T06:58:13.165Z,96118.28
2024-01-01T07:00:39.682Z,96112.22
2024-01-01T07:03:06.500Z,96110.53
2024-01-01T07:05:35.395Z,96109.78
2024-01-01T07:08:02.127Z,96118.19
2024-01-01T07:10:28.874Z,96128.25
2024-01-01T07:12:55.918Z,96124.84
2024-01-01T07:15:22.386Z,96133.16
2024-01-01T07:17:48.971Z,96138.19
2024-01-01T07:20:15.674Z,96133.94
2024-01-01T07:22:42.145Z,96138.97
2024-01-01T07:25:10.213Z,96143.97
2024-01-01T07:27:36.839Z,96143.16
2024-01-01T07:30:05.526Z,96138.19
2024-01-01T07:32:32.443Z,96144.06
2024-01-01T07:34:59.072Z,96141.47
2024-01-01T07:37:25.499Z,96139.84
2024-01-01T07:39:51.934Z,96145.00
2024-01-01T07:42:18.941Z,96147.53
2024-01-01T07:44:45.487Z,96153.59
2024-01-01T07:47:12.041Z,96157.09
2024-01-01T07:49:38.593Z,96147.00
2024-01-01T07:52:05.069Z,96139.53
2024-01-01T07:54:31.609Z,96144.69
2024-01-01T07:56:58.021Z,96138.16
2024-01-01T07:59:25.302Z,96143.44
2024-01-01T08:01:51.855Z,96144.22
2024-01-01T08:04:18.292Z,96154.47
2024-01-01T08:06:44.864Z,96146.19
2024-01-01T08:09:11.437Z,96140.38
2024-01-01T08:11:37.818Z,96149.63
2024-01-01T08:14:07.796Z,96158.09
2024-01-01T08:16:35.260Z,96148.84
2024-01-01T08:19:01.749Z,96159.84
2024-01-01T08:21:28.193Z,96165.84
2024-01-01T08:23:55.816Z,96157.50
2024-01-01T08:26:22.960Z,96162.66
2024-01-01T08:28:53.025Z,96150.03
2024-01-01T08:31:20.827Z,96151.81
2024-01-01T08:33:47.929Z,96160.25
2024-01-01T08:36:14.431Z,96165.34
2024-01-01T08:38:40.943Z,96153.50
2024-01-01T08:41:07.507Z,96167.88
2024-01-01T08:43:33.957Z,96169.50
2024-01-01T08:46:01.409Z,96184.69
2024-01-01T08:48:28.371Z,96175.50
2024-01-01T08:50:54.908Z,96176.50
2024-01-01T08:53:21.596Z,96178.31
2024-01-01T08:55:48.978Z,96173.38
2024-01-01T08:58:16.201Z,96179.44
2024-01-01T09:00:42.687Z,96172.69
2024-01-01T09:03:09.463Z,96171.03
2024-01-01T09:05:36.107Z,96172.84
2024-01-01T09:08:02.809Z,96170.38
2024-01-01T09:10:29.390Z,96168.72
2024-01-01T09:12:56.572Z,96156.94
2024-01-01T09:15:23.015Z,96177.41
2024-01-01T09:17:49.711Z,96185.25
2024-01-01T09:20:16.342Z,96198.91
2024-01-01T09:22:42.960Z,96198.19
2024-01-01T09:25:09.709Z,96191.53
2024-01-01T09:27:36.238Z,96191.59
2024-01-01T09:30:02.751Z,96197.66
2024-01-01T09:32:31.796Z,96192.59
2024-01-01T09:34:59.875Z,96197.00
2024-01-01T09:37:27.932Z,96196.22
2024-01-01T09:39:54.372Z,96196.22
2024-01-01T09:42:20.893Z,96208.16
2024-01-01T09:44:51.943Z,96206.63
2024-01-01T09:47:18.451Z,96199.97
2024-01-01T09:49:45.178Z,96199.13
2024-01-01T09:52:15.943Z,96198.38
2024-01-01T09:54:43.170Z,96186.69
2024-01-01T09:57:09.891Z,96187.69
2024-01-01T09:59:41.499Z,96187.00
2024-01-01T10:02:10.183Z,96177.78
2024-01-01T10:04:36.979Z,96178.72
2024-01-01T10:07:03.920Z,96184.69
2024-01-01T10:09:32.030Z,96188.91
2024-01-01T10:12:10.853Z,96181.22
2024-01-01T10:14:48.055Z,96187.03
2024-01-01T10:17:18.931Z,96174.25
2024-01-01T10:19:53.893Z,96186.06
2024-01-01T10:22:21.657Z,96182.69
2024-01-01T10:24:49.238Z,96181.91
2024-01-01T10:27:20.426Z,96181.97
2024-01-01T10:29:50.851Z,96180.34
2024-01-01T10:32:18.751Z,96174.47
2024-01-01T10:34:49.020Z,96177.97
2024-01-01T10:37:21.650Z,96173.84
2024-01-01T10:39:48.952Z,96165.38
2024-01-01T10:42:15.682Z,96178.16
2024-01-01T10:44:42.198Z,96169.69
2024-01-01T10:47:10.589Z,96175.59
2024-01-01T10:49:52.093Z,96175.59
2024-01-01T10:52:21.199Z,96181.56
2024-01-01T10:54:55.723Z,96179.91
2024-01-01T10:57:22.147Z,96183.44
2024-01-01T11:00:08.443Z,96184.34
2024-01-01T11:02:35.557Z,96180.16
2024-01-01T11:05:10.102Z,96185.25
2024-01-01T11:07:59.942Z,96175.13
2024-01-01T11:10:50.573Z,96181.06
2024-01-01T11:13:40.138Z,96170.09
2024-01-01T11:16:06.689Z,96182.00
2024-01-01T11:18:37.114Z,96174.28
2024-01-01T11:21:08.598Z,96170.88
2024-01-01T11:23:39.731Z,96178.50
2024-01-01T11:26:24.446Z,96188.69
2024-01-01T11:28:51.839Z,96170.03
2024-01-01T11:31:18.406Z,96173.50
2024-01-01T11:33:44.930Z,96179.50
2024-01-01T11:36:11.912Z,96163.38
2024-01-01T11:38:39.389Z,96163.38
2024-01-01T11:41:07.151Z,96166.78
2024-01-01T11:43:35.352Z,96170.22
2024-01-01T11:46:03.227Z,96171.13
2024-01-01T11:48:34.120Z,96166.88
2024-01-01T11:51:04.452Z,96169.47
2024-01-01T11:53:31.014Z,96172.94
2024-01-01T11:56:07.219Z,96167.06
2024-01-01T11:58:33.844Z,96168.84
2024-01-01T12:01:00.392Z,96158.56
2024-01-01T12:03:27.116Z,96172.09
2024-01-01T12:06:03.253Z,96160.13
2024-01-01T12:08:29.766Z,96164.38
2024-01-01T12:11:00.522Z,96164.34
2024-01-01T12:13:27.210Z,96157.56
2024-01-01T12:15:54.838Z,96149.94
2024-01-01T12:18:21.569Z,96155.97
2024-01-01T12:20:48.302Z,96161.13
2024-01-01T12:23:15.288Z,96161.19
2024-01-01T12:25:41.865Z,96161.19
2024-01-01T12:28:09.446Z,96152.66
2024-01-01T12:30:37.610Z,96150.88
2024-01-01T12:33:05.593Z,96157.63
2024-01-01T12:35:33.034Z,96163.47
2024-01-01T12:37:59.566Z,96156.63
2024-01-01T12:40:30.596Z,96161.69
2024-01-01T12:42:57.236Z,96161.66
2024-01-01T12:45:24.330Z,96161.63
2024-01-01T12:47:50.927Z,96163.31
2024-01-01T12:50:17.708Z,96165.84
2024-01-01T12:52:44.257Z,96155.63
2024-01-01T12:55:11.534Z,96159.88
2024-01-01T12:57:38.158Z,96161.53
2024-01-01T13:00:05.572Z,96161.53
2024-01-01T13:02:32.185Z,96158.94
2024-01-01T13:04:58.711Z,96159.72
2024-01-01T13:07:25.520Z,96155.50
2024-01-01T13:09:51.984Z,96157.19
2024-01-01T13:12:18.738Z,96152.06
2024-01-01T13:14:45.179Z,96152.03
2024-01-01T13:17:13.048Z,96162.22
2024-01-01T13:19:39.756Z,96168.94
2024-01-01T13:22:06.393Z,96162.94
2024-01-01T13:24:35.264Z,96169.63
2024-01-01T13:27:01.813Z,96167.78
2024-01-01T13:29:28.334Z,96170.31
2024-01-01T13:31:54.822Z,96169.47
2024-01-01T13:34:23.607Z,96165.22
2024-01-01T13:36:50.390Z,96166.09
2024-01-01T13:39:17.319Z,96161.84
2024-01-01T13:41:44.564Z,96156.84
2024-01-01T13:44:11.044Z,96160.22
2024-01-01T13:46:40.483Z,96164.50
2024-01-01T13:49:06.955Z,96169.66
2024-01-01T13:51:33.421Z,96158.66
2024-01-01T13:54:01.234Z,96171.38
2024-01-01T13:56:27.794Z,96169.66
2024-01-01T13:58:55.553Z,96160.28
2024-01-01T14:01:22.233Z,96163.69
2024-01-01T14:03:48.853Z,96164.50
2024-01-01T14:06:15.708Z,96167.91
2024-01-01T14:08:42.684Z,96170.44
2024-01-01T14:11:09.209Z,96173.00
2024-01-01T14:13:36.004Z,96169.56
2024-01-01T14:16:02.493Z,96173.03
2024-01-01T14:18:29.141Z,96169.63
2024-01-01T14:20:55.623Z,96164.50
2024-01-01T14:23:22.067Z,96167.88
2024-01-01T14:25:49.121Z,96167.88
2024-01-01T14:28:15.543Z,96176.31
2024-01-01T14:30:42.430Z,96189.06
2024-01-01T14:33:10.075Z,96204.25
2024-01-01T14:35:36.819Z,96205.13
2024-01-01T14:38:04.199Z,96207.50
2024-01-01T14:40:31.929Z,96214.00
2024-01-01T14:42:58.472Z,96211.34
2024-01-01T14:45:24.909Z,96217.13
2024-01-01T14:47:52.281Z,96222.16
2024-01-01T14:50:18.885Z,96216.13
2024-01-01T14:52:45.395Z,96218.59
2024-01-01T14:55:11.907Z,96215.13
2024-01-01T14:57:38.540Z,96218.41
2024-01-01T15:00:08.619Z,96220.81
2024-01-01T15:02:35.375Z,96221.53
2024-01-01T15:05:02.378Z,96222.28
2024-01-01T15:07:28.849Z,96214.56
2024-01-01T15:09:55.280Z,96221.28
2024-01-01T15:12:22.171Z,96223.78
2024-01-01T15:14:48.937Z,96225.41
2024-01-01T15:17:15.551Z,96225.28
2024-01-01T15:19:42.055Z,96222.72
2024-01-01T15:22:10.244Z,96225.19
2024-01-01T15:24:36.841Z,96236.09
2024-01-01T15:27:05.371Z,96236.84
2024-01-01T15:29:32.542Z,96229.97
2024-01-01T15:31:59.429Z,96234.16
2024-01-01T15:34:26.165Z,96235.00
2024-01-01T15:36:52.723Z,96231.56
2024-01-01T15:39:19.380Z,96237.41
2024-01-01T15:41:45.890Z,96237.38
2024-01-01T15:44:12.536Z,96239.03
2024-01-01T15:46:39.093Z,96246.63
2024-01-01T15:49:05.677Z,96244.81
2024-01-01T15:51:39.130Z,96248.22
2024-01-01T15:54:06.546Z,96252.44
2024-01-01T15:56:33.091Z,96249.03
2024-01-01T15:58:59.686Z,96254.94
2024-01-01T16:01:27.242Z,96265.13
2024-01-01T16:03:55.743Z,96271.97
2024-01-01T16:06:22.924Z,96260.97
2024-01-01T16:08:49.422Z,96268.59
2024-01-01T16:11:16.201Z,96265.97
2024-01-01T16:13:43.049Z,96270.28
2024-01-01T16:16:09.591Z,96268.56
2024-01-01T16:18:36.319Z,96271.91
2024-01-01T16:21:02.846Z,96271.91
2024-01-01T16:23:29.433Z,96286.25
2024-01-01T16:25:55.917Z,96292.13
2024-01-01T16:28:22.417Z,96290.47
2024-01-01T16:30:49.000Z,96298.88
2024-01-01T16:33:15.620Z,96294.63
2024-01-01T16:35:42.085Z,96298.88
2024-01-01T16:38:08.675Z,96302.31
2024-01-01T16:40:35.104Z,96311.56
2024-01-01T16:43:01.853Z,96304.78
2024-01-01T16:45:28.256Z,96314.94
2024-01-01T16:47:54.862Z,96313.25
2024-01-01T16:50:21.698Z,96306.50
2024-01-01T16:52:48.552Z,96317.47
2024-01-01T16:55:15.086Z,96320.88
2024-01-01T16:57:41.692Z,96318.34
2024-01-01T17:00:08.582Z,96322.59
2024-01-01T17:02:35.167Z,96313.28
2024-01-01T17:05:01.841Z,96317.56
2024-01-01T17:07:28.338Z,96315.88
2024-01-01T17:09:54.804Z,96320.09
2024-01-01T17:12:21.239Z,96317.50
2024-01-01T17:14:48.422Z,96317.47
2024-01-01T17:17:15.012Z,96316.53
2024-01-01T17:19:41.561Z,96319.78
2024-01-01T17:22:08.072Z,96329.03
2024-01-01T17:24:34.509Z,96324.72
2024-01-01T17:27:01.009Z,96316.19
2024-01-01T17:29:27.722Z,96321.22
2024-01-01T17:31:54.460Z,96315.22
2024-01-01T17:34:21.132Z,96321.13
2024-01-01T17:36:47.559Z,96331.22
2024-01-01T17:39:13.996Z,96319.31
2024-01-01T17:41:41.894Z,96325.28
2024-01-01T17:44:09.111Z,96329.47
2024-01-01T17:46:36.353Z,96332.81
2024-01-01T17:49:03.993Z,96327.72
2024-01-01T17:51:30.394Z,96328.59
2024-01-01T17:53:56.937Z,96332.84
2024-01-01T17:56:23.473Z,96339.59
2024-01-01T17:58:53.282Z,96333.88
2024-01-01T18:01:23.356Z,96336.44
2024-01-01T18:03:50.061Z,96332.22
2024-01-01T18:06:16.650Z,96342.41
2024-01-01T18:08:43.416Z,96340.72
2024-01-01T18:11:18.184Z,96345.00
2024-01-01T18:13:44.657Z,96343.25
2024-01-01T18:16:11.163Z,96342.50
2024-01-01T18:18:37.711Z,96346.72
2024-01-01T18:21:04.408Z,96348.31
2024-01-01T18:23:30.922Z,96355.84
2024-01-01T18:25:57.440Z,96349.88
2024-01-01T18:28:23.879Z,96351.56
2024-01-01T18:30:53.105Z,96349.09
2024-01-01T18:33:19.897Z,96348.22
2024-01-01T18:35:46.522Z,96348.06
2024-01-01T18:38:13.226Z,96361.56
2024-01-01T18:40:43.085Z,96361.47
2024-01-01T18:43:09.807Z,96362.28
2024-01-01T18:45:36.209Z,96359.66
2024-01-01T18:48:03.203Z,96359.59
2024-01-01T18:50:30.001Z,96371.47
2024-01-01T18:52:56.799Z,96373.91
2024-01-01T18:55:23.337Z,96374.72
2024-01-01T18:57:49.861Z,96373.88
2024-01-01T19:00:17.000Z,96374.78
2024-01-01T19:02:43.499Z,96379.84
2024-01-01T19:05:10.393Z,96382.47
2024-01-01T19:07:36.950Z,96375.69
2024-01-01T19:10:04.071Z,96368.06
2024-01-01T19:12:30.527Z,96368.09
2024-01-01T19:14:57.139Z,96359.59
2024-01-01T19:17:24.009Z,96358.78
2024-01-01T19:19:50.605Z,96355.41
2024-01-01T19:22:17.052Z,96352.81
2024-01-01T19:24:45.776Z,96357.06
2024-01-01T19:27:12.308Z,96357.94
2024-01-01T19:29:39.587Z,96357.94
2024-01-01T19:32:06.969Z,96363.97
2024-01-01T19:34:33.483Z,96371.63
2024-01-01T19:36:59.918Z,96370.84
2024-01-01T19:39:27.076Z,96366.66
2024-01-01T19:41:53.524Z,96374.34
2024-01-01T19:44:20.086Z,96369.34
2024-01-01T19:46:46.678Z,96369.34
2024-01-01T19:49:13.211Z,96380.41
2024-01-01T19:51:43.296Z,96378.78
2024-01-01T19:54:11.787Z,96380.63
2024-01-01T19:56:39.565Z,96382.22
2024-01-01T19:59:06.728Z,96391.59
2024-01-01T20:01:33.948Z,96383.09
2024-01-01T20:04:00.735Z,96392.31
2024-01-01T20:06:27.192Z,96395.69
2024-01-01T20:08:53.752Z,96388.84
2024-01-01T20:11:22.637Z,96384.53
2024-01-01T20:13:49.275Z,96391.19
2024-01-01T20:16:28.281Z,96392.03
2024-01-01T20:18:55.604Z,96392.84
2024-01-01T20:21:24.445Z,96388.59
2024-01-01T20:23:51.607Z,96385.97
2024-01-01T20:26:26.233Z,96394.38
2024-01-01T20:28:58.229Z,96390.84
2024-01-01T20:31:26.294Z,96393.34
2024-01-01T20:33:54.744Z,96380.56
2024-01-01T20:36:28.222Z,96374.59
2024-01-01T20:38:55.692Z,96370.38
2024-01-01T20:41:25.942Z,96377.94
2024-01-01T20:43:54.042Z,96380.47
2024-01-01T20:46:20.960Z,96375.31
2024-01-01T20:48:50.289Z,96375.41
2024-01-01T20:51:17.063Z,96374.44
2024-01-01T20:53:44.564Z,96377.88
2024-01-01T20:56:12.712Z,96383.78
2024-01-01T20:58:39.939Z,96376.97
2024-01-01T21:01:06.857Z,96374.44
2024-01-01T21:03:36.623Z,96366.84
2024-01-01T21:06:06.771Z,96365.16
2024-01-01T21:08:33.352Z,96365.06
2024-01-01T21:11:01.573Z,96374.28
2024-01-01T21:13:28.418Z,96370.00
2024-01-01T21:15:55.868Z,96368.31
2024-01-01T21:18:23.508Z,96373.47
2024-01-01T21:20:50.111Z,96367.53
2024-01-01T21:23:17.307Z,96361.63
2024-01-01T21:25:44.486Z,96361.66
2024-01-01T21:28:11.181Z,96356.50
2024-01-01T21:30:37.714Z,96356.50
2024-01-01T21:33:04.570Z,96354.84
2024-01-01T21:35:31.506Z,96351.56
2024-01-01T21:38:00.784Z,96344.00
2024-01-01T21:40:27.668Z,96345.75
2024-01-01T21:42:55.661Z,96349.09
2024-01-01T21:45:22.450Z,96349.09
2024-01-01T21:47:49.136Z,96350.72
2024-01-01T21:50:15.765Z,96345.75
2024-01-01T21:52:42.212Z,96343.22
2024-01-01T21:55:08.682Z,96348.22
2024-01-01T21:57:35.174Z,96345.59
2024-01-01T22:00:02.101Z,96345.59
2024-01-01T22:02:28.884Z,96349.84
2024-01-01T22:04:59.082Z,96345.56
2024-01-01T22:07:26.673Z,96342.97
2024-01-01T22:09:53.052Z,96341.16
2024-01-01T22:12:19.638Z,96336.13
2024-01-01T22:14:48.891Z,96331.91
2024-01-01T22:17:17.842Z,96332.69
2024-01-01T22:19:47.451Z,96330.97
2024-01-01T22:22:13.941Z,96331.81
2024-01-01T22:24:40.435Z,96322.50
2024-01-01T22:27:06.989Z,96319.91
2024-01-01T22:29:33.458Z,96318.09
2024-01-01T22:31:59.996Z,96315.50
2024-01-01T22:34:26.663Z,96315.53
2024-01-01T22:36:53.166Z,96309.59
2024-01-01T22:39:22.752Z,96310.41
2024-01-01T22:41:50.091Z,96299.31
2024-01-01T22:44:17.281Z,96306.00
2024-01-01T22:46:44.483Z,96314.41
2024-01-01T22:49:11.677Z,96315.22
2024-01-01T22:51:38.837Z,96315.13
2024-01-01T22:54:05.389Z,96313.34
2024-01-01T22:56:32.005Z,96309.84
2024-01-01T22:58:58.628Z,96308.13
2024-01-01T23:01:25.159Z,96308.13
2024-01-01T23:03:53.438Z,96316.63
2024-01-01T23:06:21.049Z,96314.97
2024-01-01T23:08:47.803Z,96314.13
2024-01-01T23:11:14.259Z,96309.19
2024-01-01T23:13:40.954Z,96304.97
2024-01-01T23:16:08.382Z,96304.19
2024-01-01T23:18:34.988Z,96299.91
2024-01-01T23:21:03.471Z,96308.38
2024-01-01T23:23:30.793Z,96311.81
2024-01-01T23:25:59.252Z,96308.38
2024-01-01T23:28:25.906Z,96310.09
2024-01-01T23:30:52.479Z,96303.31
2024-01-01T23:33:19.771Z,96299.06
2024-01-01T23:35:50.637Z,96302.44
2024-01-01T23:38:17.983Z,96302.47
2024-01-01T23:40:44.546Z,96305.81
2024-01-01T23:43:11.019Z,96303.25
2024-01-01T23:45:37.550Z,96304.13
2024-01-01T23:48:08.273Z,96304.13
2024-01-01T23:50:35.710Z,96289.84
2024-01-01T23:53:02.718Z,96284.81
2024-01-01T23:55:29.223Z,96284.78
2024-01-01T23:57:55.691Z,96278.81
